| time (UTC) | temp C | wind direction | speed KPH | gust KPH | rain 1hr cm | rain 24hr cm | rain mn cm | humidity % | barometer mb |
| 20260903084124 | 18 | 263 | 16.1 | 29.0 | 0.00 | 0.00 | 0.00 | 58 | 1021.0 |
| 20260903083512 | 18 | 283 | 19.3 | 30.6 | 0.00 | 0.00 | 0.00 | 60 | 1020.9 |
| 20260903082512 | 18 | 281 | 14.5 | 22.5 | 0.00 | 0.00 | 0.00 | 60 | 1021.0 |
| 20260903081125 | 18 | 279 | 14.5 | 20.9 | 0.00 | 0.00 | 0.00 | 63 | 1020.9 |
| 20260903080512 | 17 | 274 | 17.7 | 27.4 | 0.00 | 0.00 | 0.00 | 64 | 1021.2 |
| 20260903075512 | 17 | 272 | 19.3 | 27.4 | 0.00 | 0.00 | 0.00 | 64 | 1021.2 |
| 20260903074125 | 17 | 262 | 16.1 | 27.4 | 0.00 | 0.00 | 0.00 | 67 | 1021.3 |
| 20260903073511 | 17 | 247 | 14.5 | 24.1 | 0.00 | 0.00 | 0.00 | 70 | 1021.3 |
| 20260903072511 | 16 | 243 | 11.3 | 19.3 | 0.00 | 0.00 | 0.00 | 70 | 1021.4 |
| 20260903071125 | 16 | 254 | 9.7 | 16.1 | 0.00 | 0.00 | 0.00 | 72 | 1021.5 |
| 20260903070512 | 15 | 255 | 9.7 | 16.1 | 0.00 | 0.00 | 0.00 | 75 | 1021.8 |
| 20260903065512 | 16 | 255 | 9.7 | 16.1 | 0.00 | 0.00 | 0.00 | 73 | 1021.5 |
| 20260903064124 | 16 | 253 | 9.7 | 14.5 | 0.00 | 0.00 | 0.00 | 72 | 1021.3 |
| 20260903063511 | 16 | 254 | 8.0 | 12.9 | 0.00 | 0.00 | 0.00 | 73 | 1021.3 |
| 20260903062512 | 15 | 249 | 8.0 | 11.3 | 0.00 | 0.00 | 0.00 | 75 | 1021.5 |
| 20260903061125 | 15 | 257 | 4.8 | 9.7 | 0.00 | 0.00 | 0.00 | 78 | 1021.5 |
| 20260903060512 | 15 | 250 | 8.0 | 11.3 | 0.00 | 0.00 | 0.00 | 76 | 1021.5 |
| 20260903055511 | 15 | 251 | 6.4 | 12.9 | 0.00 | 0.00 | 0.00 | 76 | 1021.5 |
| 20260903054124 | 15 | 237 | 4.8 | 8.0 | 0.00 | 0.00 | 0.00 | 77 | 1021.5 |
| 20260903053512 | 13 | 248 | 4.8 | 8.0 | 0.00 | 0.00 | 0.00 | 78 | 1021.9 |
| 20260903052512 | 13 | 247 | 4.8 | 9.7 | 0.00 | 0.00 | 0.00 | 78 | 1021.9 |
| 20260903051125 | 14 | 247 | 4.8 | 9.7 | 0.00 | 0.00 | 0.00 | 77 | 1021.7 |
| 20260903050511 | 14 | 231 | 6.4 | 9.7 | 0.00 | 0.00 | 0.00 | 76 | 1021.5 |
| 20260903045512 | 13 | 243 | 4.8 | 8.0 | 0.00 | 0.00 | 0.00 | 78 | 1021.6 |
| 20260903044124 | 13 | 244 | 4.8 | 6.4 | 0.00 | 0.00 | 0.00 | 77 | 1021.5 |
| 20260903043511 | 14 | 243 | 6.4 | 9.7 | 0.00 | 0.00 | 0.00 | 76 | 1021.5 |
| 20260903042512 | 14 | 242 | 6.4 | 8.0 | 0.00 | 0.00 | 0.00 | 75 | 1021.2 |
| 20260903041124 | 15 | 239 | 6.4 | 9.7 | 0.00 | 0.00 | 0.00 | 73 | 1021.1 |
| 20260903040512 | 14 | 246 | 4.8 | 9.7 | 0.00 | 0.00 | 0.00 | 74 | 1021.1 |
| 20260903035512 | 15 | 242 | 4.8 | 8.0 | 0.00 | 0.00 | 0.00 | 73 | 1021.1 |
| 20260903034511 | 15 | 232 | 4.8 | 6.4 | 0.00 | 0.00 | 0.00 | 72 | 1021.0 |
| 20260903033511 | 15 | 240 | 4.8 | 6.4 | 0.00 | 0.00 | 0.00 | 72 | 1021.0 |
| 20260903032512 | 15 | 231 | 1.6 | 4.8 | 0.00 | 0.00 | 0.00 | 75 | 1021.1 |
| 20260903031125 | 15 | 266 | 1.6 | 3.2 | 0.00 | 0.00 | 0.00 | 72 | 1021.1 |
| 20260903030512 | 15 | 278 | 3.2 | 6.4 | 0.00 | 0.00 | 0.00 | 71 | 1021.1 |
| 20260903025512 | 15 | 253 | 3.2 | 4.8 | 0.00 | 0.00 | 0.00 | 70 | 1021.0 |
| 20260903024512 | 15 | 245 | 3.2 | 6.4 | 0.00 | 0.00 | 0.00 | 69 | 1020.9 |
| 20260903023512 | 15 | 227 | 4.8 | 6.4 | 0.00 | 0.00 | 0.00 | 70 | 1020.7 |
| 20260903022512 | 15 | 225 | 3.2 | 8.0 | 0.00 | 0.00 | 0.00 | 70 | 1020.7 |
| 20260903021124 | 15 | 242 | 4.8 | 8.0 | 0.00 | 0.00 | 0.00 | 73 | 1020.8 |
| 20260903020512 | 15 | 257 | 3.2 | 6.4 | 0.00 | 0.00 | 0.00 | 74 | 1020.9 |
| 20260903015512 | 14 | 255 | 3.2 | 6.4 | 0.00 | 0.00 | 0.00 | 74 | 1021.1 |
| 20260903014124 | 14 | 242 | 1.6 | 4.8 | 0.00 | 0.00 | 0.00 | 74 | 1021.1 |
| 20260903013511 | 14 | 110 | 1.6 | 3.2 | 0.00 | 0.00 | 0.00 | 74 | 1021.1 |
| 20260903012511 | 14 | 110 | 0.0 | 3.2 | 0.00 | 0.00 | 0.00 | 77 | 1021.3 |
| 20260903011125 | 14 | 268 | 1.6 | 3.2 | 0.00 | 0.00 | 0.00 | 73 | 1021.1 |
| 20260903010512 | 14 | 255 | 3.2 | 4.8 | 0.00 | 0.00 | 0.00 | 75 | 1021.1 |
| 20260903005512 | 15 | 248 | 1.6 | 3.2 | 0.00 | 0.00 | 0.00 | 70 | 1020.9 |
| 20260903004125 | 15 | 146 | 1.6 | 3.2 | 0.00 | 0.00 | 0.00 | 69 | 1020.9 |
| 20260903003512 | 15 | 148 | 1.6 | 3.2 | 0.00 | 0.00 | 0.00 | 71 | 1020.9 |
| 20260903002512 | 15 | 249 | 0.0 | 3.2 | 0.00 | 0.00 | 0.00 | 72 | 1020.9 |
| 20260903001524 | 15 | 208 | 1.6 | 3.2 | 0.00 | 0.00 | 0.00 | 72 | 1021.0 |
| 20260903000511 | 15 | 137 | 0.0 | 1.6 | 0.00 | 0.00 | 0.00 | 71 | 1021.0 |
| 20260902235511 | 15 | 96 | 3.2 | 3.2 | 0.00 | 0.00 | 0.00 | 70 | 1021.0 |
| 20260902234125 | 15 | 81 | 3.2 | 3.2 | 0.00 | 0.00 | 0.00 | 73 | 1021.3 |
| 20260902233511 | 15 | 91 | 3.2 | 3.2 | 0.00 | 0.00 | 0.00 | 71 | 1021.3 |
| 20260902232511 | 15 | 71 | 1.6 | 3.2 | 0.00 | 0.00 | 0.00 | 71 | 1021.3 |
| 20260902231512 | 15 | 31 | 0.0 | 1.6 | 0.00 | 0.00 | 0.00 | 72 | 1021.3 |
| 20260902230511 | 15 | 99 | 1.6 | 3.2 | 0.00 | 0.00 | 0.00 | 72 | 1021.3 |
| 20260902225512 | 15 | 82 | 3.2 | 3.2 | 0.00 | 0.00 | 0.00 | 72 | 1021.3 |
| 20260902224125 | 15 | 73 | 3.2 | 3.2 | 0.00 | 0.00 | 0.00 | 72 | 1021.3 |
| 20260902223512 | 15 | 74 | 3.2 | 4.8 | 0.00 | 0.00 | 0.00 | 71 | 1021.3 |
| 20260902222512 | 15 | 57 | 4.8 | 6.4 | 0.00 | 0.00 | 0.00 | 72 | 1021.3 |
| 20260902221125 | 15 | 58 | 4.8 | 6.4 | 0.00 | 0.00 | 0.00 | 74 | 1021.1 |
| 20260902220511 | 14 | 63 | 4.8 | 6.4 | 0.00 | 0.00 | 0.00 | 75 | 1021.2 |
| 20260902215512 | 14 | 66 | 4.8 | 6.4 | 0.00 | 0.00 | 0.00 | 77 | 1021.2 |
| 20260902214125 | 15 | 49 | 1.6 | 4.8 | 0.00 | 0.00 | 0.00 | 72 | 1021.0 |
| 20260902213511 | 15 | 152 | 0.0 | 3.2 | 0.00 | 0.00 | 0.00 | 70 | 1020.9 |
| 20260902211125 | 16 | 71 | 3.2 | 4.8 | 0.00 | 0.00 | 0.00 | 64 | 1020.7 |
| 20260902210512 | 16 | 99 | 1.6 | 3.2 | 0.00 | 0.00 | 0.00 | 65 | 1020.6 |
| 20260902205512 | 16 | 140 | 1.6 | 4.8 | 0.00 | 0.00 | 0.00 | 64 | 1020.6 |
| 20260902204126 | 16 | 138 | 1.6 | 4.8 | 0.00 | 0.00 | 0.00 | 63 | 1020.6 |
| 20260902203512 | 16 | 136 | 1.6 | 3.2 | 0.00 | 0.00 | 0.00 | 66 | 1020.7 |
| 20260902202512 | 15 | 185 | 1.6 | 3.2 | 0.00 | 0.00 | 0.00 | 67 | 1020.8 |
| 20260902201125 | 15 | 223 | 3.2 | 4.8 | 0.00 | 0.00 | 0.00 | 68 | 1020.8 |
| 20260902200512 | 16 | 196 | 1.6 | 3.2 | 0.00 | 0.00 | 0.00 | 67 | 1020.7 |
| 20260902195512 | 16 | 154 | 0.0 | 1.6 | 0.00 | 0.00 | 0.00 | 64 | 1020.5 |
| 20260902194125 | 16 | 164 | 0.0 | 3.2 | 0.00 | 0.00 | 0.00 | 67 | 1020.7 |
| 20260902193512 | 16 | 215 | 1.6 | 3.2 | 0.00 | 0.00 | 0.00 | 65 | 1020.7 |
| 20260902192511 | 16 | 211 | 3.2 | 4.8 | 0.00 | 0.00 | 0.00 | 61 | 1020.5 |
| 20260902191125 | 16 | 360 | 0.0 | 3.2 | 0.00 | 0.00 | 0.00 | 61 | 1020.5 |
| 20260902190511 | 16 | 44 | 3.2 | 4.8 | 0.00 | 0.00 | 0.00 | 62 | 1020.4 |
| 20260902185512 | 16 | 77 | 3.2 | 4.8 | 0.00 | 0.00 | 0.00 | 64 | 1020.3 |
| 20260902184125 | 16 | 71 | 3.2 | 4.8 | 0.00 | 0.00 | 0.00 | 65 | 1020.3 |
| 20260902183512 | 16 | 39 | 1.6 | 3.2 | 0.00 | 0.00 | 0.00 | 65 | 1020.2 |
| 20260902182512 | 16 | 237 | 1.6 | 1.6 | 0.00 | 0.00 | 0.00 | 63 | 1020.1 |
| 20260902181125 | 17 | 270 | 1.6 | 3.2 | 0.00 | 0.00 | 0.00 | 60 | 1019.9 |
| 20260902180512 | 17 | 303 | 3.2 | 4.8 | 0.00 | 0.00 | 0.00 | 62 | 1019.8 |
| 20260902175512 | 17 | 307 | 3.2 | 4.8 | 0.00 | 0.00 | 0.00 | 58 | 1019.8 |
| 20260902174125 | 17 | 313 | 4.8 | 4.8 | 0.00 | 0.00 | 0.00 | 58 | 1019.6 |
| 20260902173511 | 18 | 307 | 4.8 | 6.4 | 0.00 | 0.00 | 0.00 | 58 | 1019.6 |
| 20260902172512 | 18 | 287 | 6.4 | 9.7 | 0.00 | 0.00 | 0.00 | 58 | 1019.5 |
| 20260902171125 | 18 | 279 | 6.4 | 9.7 | 0.00 | 0.00 | 0.00 | 55 | 1019.3 |
| 20260902170512 | 18 | 267 | 6.4 | 11.3 | 0.00 | 0.00 | 0.00 | 56 | 1019.2 |
| 20260902165512 | 19 | 267 | 6.4 | 11.3 | 0.00 | 0.00 | 0.00 | 54 | 1019.2 |
| 20260902164125 | 19 | 273 | 9.7 | 20.9 | 0.00 | 0.00 | 0.00 | 54 | 1019.1 |
| 20260902163512 | 19 | 275 | 11.3 | 17.7 | 0.00 | 0.00 | 0.00 | 52 | 1019.1 |
| 20260902162512 | 20 | 283 | 9.7 | 17.7 | 0.00 | 0.00 | 0.00 | 52 | 1018.9 |
| 20260902161125 | 20 | 267 | 12.9 | 19.3 | 0.00 | 0.00 | 0.00 | 49 | 1018.8 |
| 20260902160511 | 21 | 264 | 12.9 | 20.9 | 0.00 | 0.00 | 0.00 | 46 | 1018.6 |
| 20260902155512 | 21 | 273 | 14.5 | 20.9 | 0.00 | 0.00 | 0.00 | 48 | 1018.7 |
| 20260902154125 | 20 | 260 | 14.5 | 27.4 | 0.00 | 0.00 | 0.00 | 47 | 1018.9 |
| 20260902153512 | 20 | 284 | 14.5 | 22.5 | 0.00 | 0.00 | 0.00 | 48 | 1019.1 |
| 20260902152511 | 21 | 276 | 16.1 | 25.7 | 0.00 | 0.00 | 0.00 | 44 | 1018.8 |
| 20260902151125 | 21 | 254 | 12.9 | 20.9 | 0.00 | 0.00 | 0.00 | 43 | 1018.6 |
| 20260902150512 | 21 | 267 | 12.9 | 22.5 | 0.00 | 0.00 | 0.00 | 47 | 1018.6 |
| 20260902145512 | 20 | 271 | 12.9 | 19.3 | 0.00 | 0.00 | 0.00 | 47 | 1019.0 |
| 20260902144125 | 21 | 241 | 16.1 | 25.7 | 0.00 | 0.00 | 0.00 | 45 | 1018.8 |
| 20260902143511 | 21 | 300 | 16.1 | 24.1 | 0.00 | 0.00 | 0.00 | 46 | 1018.6 |
| 20260902142512 | 21 | 290 | 4.8 | 19.3 | 0.00 | 0.00 | 0.00 | 48 | 1018.7 |
| 20260902141125 | 21 | 261 | 6.4 | 17.7 | 0.00 | 0.00 | 0.00 | 46 | 1018.8 |
| 20260902140512 | 22 | 273 | 6.4 | 17.7 | 0.00 | 0.00 | 0.00 | 45 | 1018.7 |
| 20260902135512 | 21 | 301 | 14.5 | 19.3 | 0.00 | 0.00 | 0.00 | 47 | 1018.9 |
| 20260902134124 | 21 | 288 | 9.7 | 17.7 | 0.00 | 0.00 | 0.00 | 48 | 1018.8 |
| 20260902133512 | 21 | 281 | 8.0 | 20.9 | 0.00 | 0.00 | 0.00 | 50 | 1018.9 |
| 20260902132512 | 20 | 293 | 12.9 | 19.3 | 0.00 | 0.00 | 0.00 | 52 | 1019.4 |
| 20260902131125 | 20 | 294 | 8.0 | 16.1 | 0.00 | 0.00 | 0.00 | 52 | 1019.4 |
| 20260902130512 | 20 | 312 | 12.9 | 19.3 | 0.00 | 0.00 | 0.00 | 53 | 1019.5 |
| 20260902125512 | 21 | 318 | 11.3 | 20.9 | 0.00 | 0.00 | 0.00 | 51 | 1019.3 |
| 20260902124124 | 21 | 301 | 6.4 | 16.1 | 0.00 | 0.00 | 0.00 | 52 | 1019.5 |
| 20260902123512 | 20 | 301 | 11.3 | 17.7 | 0.00 | 0.00 | 0.00 | 55 | 1019.6 |
| 20260902122512 | 20 | 264 | 6.4 | 12.9 | 0.00 | 0.00 | 0.00 | 51 | 1019.7 |
| 20260902121125 | 20 | 291 | 9.7 | 17.7 | 0.00 | 0.00 | 0.00 | 54 | 1019.8 |
| 20260902120511 | 20 | 278 | 6.4 | 14.5 | 0.00 | 0.00 | 0.00 | 51 | 1019.9 |
| 20260902115511 | 20 | 283 | 11.3 | 17.7 | 0.00 | 0.00 | 0.00 | 52 | 1020.0 |
| 20260902114125 | 20 | 284 | 12.9 | 19.3 | 0.00 | 0.00 | 0.00 | 52 | 1020.1 |
| 20260902113512 | 20 | 279 | 12.9 | 22.5 | 0.00 | 0.00 | 0.00 | 51 | 1020.2 |
| 20260902112512 | 20 | 282 | 11.3 | 17.7 | 0.00 | 0.00 | 0.00 | 51 | 1020.1 |
| 20260902111125 | 20 | 275 | 12.9 | 20.9 | 0.00 | 0.00 | 0.00 | 51 | 1020.3 |
| 20260902110512 | 20 | 289 | 16.1 | 20.9 | 0.00 | 0.00 | 0.00 | 51 | 1020.4 |
| 20260902105511 | 20 | 295 | 12.9 | 20.9 | 0.00 | 0.00 | 0.00 | 50 | 1020.3 |
| 20260902104125 | 20 | 287 | 12.9 | 22.5 | 0.00 | 0.00 | 0.00 | 51 | 1020.2 |
| 20260902103512 | 21 | 242 | 8.0 | 17.7 | 0.00 | 0.00 | 0.00 | 48 | 1020.0 |
| 20260902102511 | 21 | 242 | 11.3 | 20.9 | 0.00 | 0.00 | 0.00 | 47 | 1020.2 |
| 20260902101125 | 20 | 207 | 14.5 | 20.9 | 0.00 | 0.00 | 0.00 | 48 | 1020.3 |
| 20260902100512 | 21 | 265 | 6.4 | 12.9 | 0.00 | 0.00 | 0.00 | 50 | 1020.0 |
| 20260902095512 | 20 | 224 | 9.7 | 17.7 | 0.00 | 0.00 | 0.00 | 48 | 1020.5 |
| 20260902094125 | 20 | 275 | 9.7 | 19.3 | 0.00 | 0.00 | 0.00 | 50 | 1020.3 |
| 20260902093512 | 20 | 222 | 3.2 | 12.9 | 0.00 | 0.00 | 0.00 | 49 | 1020.4 |
| 20260902092511 | 20 | 248 | 8.0 | 17.7 | 0.00 | 0.00 | 0.00 | 50 | 1020.5 |
| 20260902091124 | 20 | 240 | 6.4 | 17.7 | 0.00 | 0.00 | 0.00 | 51 | 1020.5 |
| 20260902090512 | 20 | 250 | 6.4 | 12.9 | 0.00 | 0.00 | 0.00 | 51 | 1020.5 |